createdAt,value
2018-04-14T00:00:52.739Z,66.13
2018-04-14T00:03:20.329Z,66.13
2018-04-14T00:05:47.958Z,66.67
2018-04-14T00:08:16.104Z,66.52
2018-04-14T00:10:43.760Z,66.75
2018-04-14T00:13:11.496Z,66.96
2018-04-14T00:15:39.153Z,66.91
2018-04-14T00:18:06.800Z,66.98
2018-04-14T00:20:34.873Z,66.69
2018-04-14T00:23:02.521Z,67.11
2018-04-14T00:25:30.107Z,66.69
2018-04-14T00:27:57.772Z,67.38
2018-04-14T00:30:25.358Z,67.27
2018-04-14T00:32:53.000Z,67.46
2018-04-14T00:35:21.969Z,67.45
2018-04-14T00:37:49.605Z,67.44
2018-04-14T00:40:17.180Z,67.31
2018-04-14T00:42:44.940Z,67.19
2018-04-14T00:45:12.532Z,68.30
2018-04-14T00:47:40.214Z,67.86
2018-04-14T00:50:07.961Z,68.18
2018-04-14T00:52:35.611Z,68.21
2018-04-14T00:55:03.269Z,67.95
2018-04-14T00:57:30.953Z,67.66
2018-04-14T00:59:58.547Z,67.86
2018-04-14T01:02:26.208Z,68.36
2018-04-14T01:04:53.921Z,67.95
2018-04-14T01:07:21.547Z,68.19
2018-04-14T01:09:49.141Z,67.85
2018-04-14T01:12:17.556Z,68.35
2018-04-14T01:14:45.136Z,68.50
2018-04-14T01:17:12.788Z,68.38
2018-04-14T01:19:40.559Z,66.23
2018-04-14T01:22:08.227Z,65.60
2018-04-14T01:24:35.899Z,66.51
2018-04-14T01:27:03.553Z,66.74
2018-04-14T01:29:31.151Z,66.72
2018-04-14T01:31:58.744Z,67.21
2018-04-14T01:34:26.476Z,66.84
2018-04-14T01:36:54.241Z,65.82
2018-04-14T01:39:21.829Z,67.57
2018-04-14T01:41:49.580Z,67.66
2018-04-14T01:44:17.787Z,67.52
2018-04-14T01:46:45.471Z,68.01
2018-04-14T01:49:13.202Z,68.06
2018-04-14T01:51:40.781Z,68.39
2018-04-14T01:54:08.357Z,68.38
2018-04-14T01:56:35.989Z,68.30
2018-04-14T01:59:03.607Z,68.21
2018-04-14T02:01:31.245Z,67.76
2018-04-14T02:03:59.012Z,67.62
2018-04-14T02:06:26.600Z,68.05
2018-04-14T02:08:54.203Z,67.66
2018-04-14T02:11:21.868Z,67.22
2018-04-14T02:13:49.532Z,67.94
2018-04-14T02:16:17.124Z,67.78
2018-04-14T02:18:44.842Z,67.99
2018-04-14T02:21:12.419Z,67.81
2018-04-14T02:23:40.063Z,68.03
2018-04-14T02:26:07.741Z,67.98
2018-04-14T02:28:35.323Z,68.23
2018-04-14T02:31:02.899Z,68.14
2018-04-14T02:33:30.520Z,68.90
2018-04-14T02:35:58.137Z,69.18
2018-04-14T02:38:26.255Z,69.16
2018-04-14T02:40:54.041Z,69.81
2018-04-14T02:43:21.652Z,70.21
2018-04-14T02:45:49.235Z,70.03
2018-04-14T02:48:16.871Z,69.99
2018-04-14T02:50:44.460Z,70.27
2018-04-14T02:53:12.051Z,70.28
2018-04-14T02:55:39.740Z,70.25
2018-04-14T02:58:07.388Z,70.62
2018-04-14T03:00:34.979Z,70.41
2018-04-14T03:03:02.767Z,70.38
2018-04-14T03:05:30.383Z,70.24
2018-04-14T03:07:57.957Z,70.65
2018-04-14T03:10:25.751Z,71.15
2018-04-14T03:12:53.341Z,71.31
2018-04-14T03:15:20.923Z,71.69
2018-04-14T03:17:48.616Z,71.62
2018-04-14T03:20:16.211Z,71.88
2018-04-14T03:22:43.803Z,70.98
2018-04-14T03:25:11.590Z,70.94
2018-04-14T03:27:39.237Z,71.36
2018-04-14T03:30:06.864Z,71.45
2018-04-14T03:32:34.565Z,71.51
2018-04-14T03:35:02.206Z,71.86
2018-04-14T03:37:29.794Z,71.80
2018-04-14T03:39:57.715Z,71.66
2018-04-14T03:42:25.300Z,72.28
2018-04-14T03:44:52.879Z,71.92
2018-04-14T03:47:20.663Z,72.14
2018-04-14T03:49:48.256Z,72.39
2018-04-14T03:52:15.902Z,72.01
2018-04-14T03:54:43.547Z,72.19
2018-04-14T03:57:11.132Z,71.24
2018-04-14T03:59:38.716Z,71.39
2018-04-14T04:02:06.404Z,71.93
2018-04-14T04:04:33.995Z,71.58
2018-04-14T04:07:01.600Z,71.29
2018-04-14T04:09:29.229Z,71.43
2018-04-14T04:11:56.817Z,71.31
2018-04-14T04:14:24.405Z,71.30
2018-04-14T04:16:52.110Z,71.58
2018-04-14T04:19:31.524Z,71.98
2018-04-14T04:22:10.917Z,71.93
2018-04-14T04:24:50.348Z,72.13
2018-04-14T04:27:18.120Z,72.14
2018-04-14T04:29:45.768Z,71.97
2018-04-14T04:32:13.347Z,71.54
2018-04-14T04:34:41.098Z,71.32
2018-04-14T04:37:08.713Z,70.66
2018-04-14T04:39:36.372Z,70.61
2018-04-14T04:42:04.239Z,69.77
2018-04-14T04:44:31.887Z,69.30
2018-04-14T04:46:59.528Z,69.12
2018-04-14T04:49:27.171Z,68.64
2018-04-14T04:51:54.810Z,67.34
2018-04-14T04:54:22.452Z,66.84
2018-04-14T04:56:50.248Z,66.84
2018-04-14T04:59:17.957Z,66.47
2018-04-14T05:01:46.213Z,66.06
2018-04-14T05:04:13.839Z,66.89
2018-04-14T05:06:41.435Z,64.64
2018-04-14T05:09:09.021Z,64.76
2018-04-14T05:11:36.711Z,63.87
2018-04-14T05:14:04.381Z,63.28
2018-04-14T05:16:31.998Z,63.05
2018-04-14T05:18:59.723Z,63.12
2018-04-14T05:21:27.349Z,63.69
2018-04-14T05:23:54.945Z,63.59
2018-04-14T05:26:22.580Z,63.78
2018-04-14T05:28:50.188Z,61.76
2018-04-14T05:31:17.772Z,57.80
2018-04-14T05:33:45.561Z,54.76
2018-04-14T05:36:13.148Z,53.61
2018-04-14T05:38:40.734Z,54.01
2018-04-14T05:41:08.448Z,53.64
2018-04-14T05:43:36.218Z,51.98
2018-04-14T05:46:03.897Z,51.25
2018-04-14T05:48:31.530Z,51.99
2018-04-14T05:50:59.682Z,51.08
2018-04-14T05:53:27.302Z,48.93
2018-04-14T05:55:54.996Z,47.80
2018-04-14T05:58:22.701Z,46.20
2018-04-14T06:00:50.380Z,46.29
2018-04-14T06:03:18.023Z,45.50
2018-04-14T06:05:45.601Z,44.40
2018-04-14T06:08:13.187Z,46.74
2018-04-14T06:10:40.819Z,45.67
2018-04-14T06:13:08.460Z,43.73
2018-04-14T06:15:36.043Z,44.08
2018-04-14T06:18:03.732Z,44.74
2018-04-14T06:20:31.327Z,44.85
2018-04-14T06:22:58.908Z,43.62
2018-04-14T06:25:26.585Z,44.11
2018-04-14T06:27:54.178Z,43.27
2018-04-14T06:30:21.800Z,43.04
2018-04-14T06:32:49.519Z,43.05
2018-04-14T06:35:17.091Z,43.82
2018-04-14T06:37:44.682Z,44.83
2018-04-14T06:40:12.312Z,45.46
2018-04-14T06:42:39.892Z,45.14
2018-04-14T06:45:07.719Z,46.17
2018-04-14T06:47:35.518Z,47.94
2018-04-14T06:50:03.731Z,48.22
2018-04-14T06:52:31.373Z,46.14
2018-04-14T06:54:59.024Z,48.09
2018-04-14T06:57:26.604Z,46.50
2018-04-14T06:59:54.240Z,49.18
2018-04-14T07:02:21.892Z,47.76
2018-04-14T07:04:50.392Z,47.09
2018-04-14T07:07:17.949Z,47.63
2018-04-14T07:09:45.679Z,46.74
2018-04-14T07:12:13.267Z,49.83
2018-04-14T07:14:40.860Z,47.84
2018-04-14T07:17:08.480Z,47.02
2018-04-14T07:19:36.881Z,46.90
2018-04-14T07:22:04.473Z,49.44
2018-04-14T07:24:32.280Z,47.12
2018-04-14T07:26:59.878Z,49.91
2018-04-14T07:29:27.526Z,47.29
2018-04-14T07:31:55.197Z,46.38
2018-04-14T07:34:22.875Z,47.63
2018-04-14T07:36:50.525Z,47.26
2018-04-14T07:39:18.292Z,43.95
2018-04-14T07:41:45.876Z,48.08
2018-04-14T07:44:13.488Z,48.81
2018-04-14T07:46:42.088Z,48.77
2018-04-14T07:49:09.674Z,50.43
2018-04-14T07:51:37.324Z,51.35
2018-04-14T07:54:05.030Z,48.87
2018-04-14T07:56:32.621Z,48.04
2018-04-14T07:59:00.191Z,46.51
2018-04-14T08:01:28.095Z,46.29
2018-04-14T08:03:55.675Z,48.15
2018-04-14T08:06:23.269Z,48.73
2018-04-14T08:08:50.962Z,45.89
2018-04-14T08:11:18.552Z,48.69
2018-04-14T08:13:46.128Z,45.09
2018-04-14T08:16:13.851Z,48.57
2018-04-14T08:18:41.436Z,49.12
2018-04-14T08:21:09.011Z,47.67
2018-04-14T08:23:37.460Z,46.29
2018-04-14T08:26:05.825Z,48.07
2018-04-14T08:28:33.920Z,46.23
2018-04-14T08:31:02.192Z,45.99
2018-04-14T08:33:29.813Z,49.76
2018-04-14T08:35:58.104Z,47.36
2018-04-14T08:38:25.819Z,50.04
2018-04-14T08:40:53.678Z,46.50
2018-04-14T08:43:21.324Z,50.23
2018-04-14T08:45:48.980Z,50.23
2018-04-14T08:48:17.287Z,50.75
2018-04-14T08:50:44.947Z,47.12
2018-04-14T08:53:12.584Z,49.71
2018-04-14T08:55:40.168Z,47.45
2018-04-14T08:58:07.744Z,46.88
2018-04-14T09:00:35.379Z,44.16
2018-04-14T09:03:02.974Z,44.21
2018-04-14T09:05:30.547Z,46.58
2018-04-14T09:07:58.191Z,48.03
2018-04-14T09:10:25.790Z,46.89
2018-04-14T09:12:53.374Z,44.48
2018-04-14T09:15:21.007Z,47.91
2018-04-14T09:17:48.662Z,46.61
2018-04-14T09:20:16.308Z,46.01
2018-04-14T09:22:44.016Z,44.45
2018-04-14T09:25:11.676Z,46.80
2018-04-14T09:27:39.261Z,43.57
2018-04-14T09:30:07.548Z,47.09
2018-04-14T09:32:35.128Z,44.95
2018-04-14T09:35:02.734Z,45.91
2018-04-14T09:37:30.432Z,46.22
2018-04-14T09:39:58.032Z,44.56
2018-04-14T09:42:25.705Z,44.66
2018-04-14T09:44:53.345Z,43.89
2018-04-14T09:47:20.935Z,49.73
2018-04-14T09:49:48.688Z,44.50
2018-04-14T09:52:16.503Z,44.47
2018-04-14T09:54:44.146Z,44.43
2018-04-14T09:57:11.779Z,42.06
2018-04-14T09:59:40.310Z,43.62
2018-04-14T10:02:10.934Z,43.14
2018-04-14T10:04:38.523Z,44.74
2018-04-14T10:07:06.210Z,46.20
2018-04-14T10:09:33.791Z,41.93
2018-04-14T10:12:01.380Z,44.22
2018-04-14T10:14:29.132Z,42.91
2018-04-14T10:16:56.804Z,43.87
2018-04-14T10:19:24.392Z,44.33
2018-04-14T10:21:52.035Z,42.38
2018-04-14T10:24:19.623Z,43.17
2018-04-14T10:26:47.278Z,40.51
2018-04-14T10:29:14.984Z,39.05
2018-04-14T10:31:42.632Z,40.22
2018-04-14T10:34:10.221Z,38.88
2018-04-14T10:36:37.965Z,42.44
2018-04-14T10:39:06.328Z,40.05
2018-04-14T10:41:33.921Z,41.44
2018-04-14T10:44:01.560Z,39.10
2018-04-14T10:46:29.228Z,42.52
2018-04-14T10:48:56.836Z,40.18
2018-04-14T10:51:24.700Z,43.70
2018-04-14T10:53:52.295Z,41.23
2018-04-14T10:56:19.974Z,42.01
2018-04-14T10:58:47.615Z,41.92
2018-04-14T11:01:15.226Z,43.38
2018-04-14T11:03:42.842Z,42.28
2018-04-14T11:06:10.578Z,41.31
2018-04-14T11:08:38.177Z,42.10
2018-04-14T11:17:03.333Z,39.47
2018-04-14T11:19:30.924Z,39.91
2018-04-14T11:21:58.525Z,39.17
2018-04-14T11:24:26.152Z,40.69
2018-04-14T11:26:53.800Z,40.10
2018-04-14T11:29:21.489Z,40.53
2018-04-14T11:31:49.119Z,42.66
2018-04-14T11:34:16.777Z,40.20
2018-04-14T11:36:44.369Z,41.15
2018-04-14T11:39:12.088Z,41.39
2018-04-14T11:41:39.664Z,40.35
2018-04-14T11:44:07.249Z,40.78
2018-04-14T11:46:34.952Z,40.65
2018-04-14T11:49:02.547Z,42.20
2018-04-14T11:51:30.271Z,41.43
2018-04-14T11:53:57.975Z,41.94
2018-04-14T11:56:25.568Z,41.78
2018-04-14T11:58:53.155Z,41.35
2018-04-14T12:01:20.800Z,40.30
2018-04-14T12:03:48.389Z,41.59
2018-04-14T12:06:16.052Z,42.87
2018-04-14T12:08:43.784Z,39.69
2018-04-14T12:11:11.378Z,39.60
2018-04-14T12:13:39.033Z,38.99
2018-04-14T12:16:06.825Z,39.13
2018-04-14T12:18:34.404Z,39.45
2018-04-14T12:21:02.065Z,39.16
2018-04-14T12:23:29.816Z,39.21
2018-04-14T12:25:57.457Z,39.01
2018-04-14T12:28:25.057Z,37.38
2018-04-14T12:30:52.764Z,35.83
2018-04-14T12:33:20.364Z,35.73
2018-04-14T12:35:48.013Z,36.54
2018-04-14T12:38:15.717Z,36.84
2018-04-14T12:40:43.300Z,37.82
2018-04-14T12:43:10.897Z,37.90
2018-04-14T12:45:38.640Z,38.18
2018-04-14T12:48:06.890Z,38.95
2018-04-14T12:50:34.540Z,38.46
2018-04-14T12:53:02.413Z,38.61
2018-04-14T12:55:30.316Z,39.17
2018-04-14T12:57:57.944Z,39.30
2018-04-14T13:00:25.598Z,42.81
2018-04-14T13:02:53.266Z,42.03
2018-04-14T13:05:20.919Z,41.69
2018-04-14T13:07:48.611Z,42.66
2018-04-14T13:10:16.205Z,43.77
2018-04-14T13:12:43.793Z,43.25
2018-04-14T13:15:11.428Z,42.77
2018-04-14T13:17:39.012Z,42.89
2018-04-14T13:20:06.611Z,42.72
2018-04-14T13:22:34.402Z,44.02
2018-04-14T13:25:02.019Z,44.14
2018-04-14T13:27:29.673Z,44.36
2018-04-14T13:29:57.416Z,43.43
2018-04-14T13:32:25.031Z,44.86
2018-04-14T13:34:52.614Z,44.58
2018-04-14T13:37:20.332Z,43.81
2018-04-14T13:39:47.976Z,44.49
2018-04-14T13:42:15.640Z,44.69
2018-04-14T13:44:43.305Z,44.57
2018-04-14T13:47:11.842Z,45.62
2018-04-14T13:49:39.498Z,46.21
2018-04-14T13:52:07.301Z,46.56
2018-04-14T13:54:35.441Z,45.82
2018-04-14T13:57:03.403Z,45.86
2018-04-14T13:59:31.148Z,46.42
2018-04-14T14:01:58.794Z,45.81
2018-04-14T14:04:26.501Z,46.11
2018-04-14T14:06:54.219Z,46.07
2018-04-14T14:09:21.815Z,45.82
2018-04-14T14:11:49.400Z,45.85
2018-04-14T14:14:17.119Z,45.32
2018-04-14T14:16:44.707Z,45.58
2018-04-14T14:19:12.326Z,46.52
2018-04-14T14:21:39.973Z,46.18
2018-04-14T14:24:07.558Z,45.66
2018-04-14T14:26:35.168Z,45.87
2018-04-14T14:29:02.978Z,44.98
2018-04-14T14:31:30.633Z,45.19
2018-04-14T14:33:58.400Z,44.79
2018-04-14T14:36:26.111Z,44.66
2018-04-14T14:38:53.753Z,44.67
2018-04-14T14:41:22.900Z,44.26
2018-04-14T14:43:50.632Z,44.30
2018-04-14T14:46:18.288Z,44.48
2018-04-14T14:48:45.946Z,44.10
2018-04-14T14:51:13.589Z,44.43
2018-04-14T14:53:41.165Z,44.87
2018-04-14T14:56:08.837Z,45.27
2018-04-14T14:58:36.472Z,45.12
2018-04-14T15:01:04.145Z,45.24
2018-04-14T15:03:31.750Z,45.88
2018-04-14T15:05:59.441Z,45.64
2018-04-14T15:08:27.101Z,45.27
2018-04-14T15:10:54.684Z,46.04
2018-04-14T15:13:22.382Z,46.08
2018-04-14T15:15:50.024Z,45.51
2018-04-14T15:18:17.669Z,46.52
2018-04-14T15:20:45.291Z,46.53
2018-04-14T15:23:12.865Z,46.82
2018-04-14T15:25:40.453Z,47.43
2018-04-14T15:28:08.087Z,47.98
2018-04-14T15:30:35.729Z,49.18
2018-04-14T15:33:03.322Z,49.69
2018-04-14T15:35:31.440Z,50.01
2018-04-14T15:37:59.763Z,50.38
2018-04-14T15:40:27.411Z,50.12
2018-04-14T15:42:55.105Z,50.49
2018-04-14T15:45:22.827Z,51.13
2018-04-14T15:47:50.474Z,50.13
2018-04-14T15:50:18.265Z,50.33
2018-04-14T15:52:45.853Z,50.44
2018-04-14T15:55:13.512Z,51.08
2018-04-14T15:57:41.553Z,51.04
2018-04-14T16:00:09.156Z,51.31
2018-04-14T16:02:36.740Z,50.76
2018-04-14T16:05:04.394Z,51.13
2018-04-14T16:07:32.064Z,50.65
2018-04-14T16:09:59.640Z,51.12
2018-04-14T16:12:27.899Z,51.36
2018-04-14T16:14:55.478Z,51.39
2018-04-14T16:17:23.088Z,51.08
2018-04-14T16:19:50.808Z,51.27
2018-04-14T16:22:18.477Z,52.00
2018-04-14T16:24:46.108Z,51.92
2018-04-14T16:27:13.731Z,52.40
2018-04-14T16:29:41.317Z,52.86
2018-04-14T16:32:09.621Z,52.43
2018-04-14T16:34:37.347Z,52.49
2018-04-14T16:37:05.004Z,52.80
2018-04-14T16:39:32.588Z,53.24
2018-04-14T16:42:00.296Z,53.42
2018-04-14T16:44:27.885Z,53.14
2018-04-14T16:46:55.613Z,53.71
2018-04-14T16:49:23.267Z,54.01
2018-04-14T16:51:50.905Z,54.14
2018-04-14T16:54:18.654Z,54.05
2018-04-14T16:56:46.414Z,54.21
2018-04-14T16:59:14.789Z,54.60
2018-04-14T17:01:42.386Z,54.79
2018-04-14T17:04:10.085Z,55.05
2018-04-14T17:06:37.791Z,55.26
2018-04-14T17:09:05.564Z,55.29
2018-04-14T17:11:33.273Z,56.20
2018-04-14T17:14:00.866Z,56.47
2018-04-14T17:16:28.450Z,56.33
2018-04-14T17:18:56.111Z,56.57
2018-04-14T17:21:24.481Z,56.88
2018-04-14T17:23:52.129Z,56.54
2018-04-14T17:26:19.779Z,56.85
2018-04-14T17:28:47.359Z,56.84
2018-04-14T17:31:15.016Z,56.94
2018-04-14T17:33:42.650Z,57.55
2018-04-14T17:36:10.232Z,57.66
2018-04-14T17:38:37.808Z,57.75
2018-04-14T17:41:05.459Z,57.99
2018-04-14T17:43:33.118Z,58.11
2018-04-14T17:46:00.723Z,57.96
2018-04-14T17:48:28.447Z,57.89
2018-04-14T17:50:56.105Z,58.33
2018-04-14T17:53:23.716Z,58.58
2018-04-14T17:55:51.489Z,58.96
2018-04-14T17:58:19.061Z,58.65
2018-04-14T18:00:46.892Z,58.53
2018-04-14T18:03:14.594Z,58.40
2018-04-14T18:05:42.199Z,58.55
2018-04-14T18:08:09.803Z,59.23
2018-04-14T18:10:37.509Z,59.98
2018-04-14T18:13:05.920Z,59.93
2018-04-14T18:15:33.485Z,60.02
2018-04-14T18:18:01.210Z,59.97
2018-04-14T18:20:28.801Z,60.17
2018-04-14T18:22:56.432Z,60.68
2018-04-14T18:25:24.241Z,60.53
2018-04-14T18:27:51.925Z,60.16
2018-04-14T18:30:19.877Z,60.57
2018-04-14T18:32:47.624Z,60.24
2018-04-14T18:35:15.271Z,60.36
2018-04-14T18:37:42.849Z,60.30
2018-04-14T18:40:10.577Z,61.04
2018-04-14T18:42:38.163Z,60.97
2018-04-14T18:45:05.843Z,61.44
2018-04-14T18:47:33.512Z,61.48
2018-04-14T18:50:01.101Z,62.00
2018-04-14T18:52:28.710Z,62.21
2018-04-14T18:54:56.360Z,62.53
2018-04-14T18:57:23.944Z,62.65
2018-04-14T18:59:51.534Z,62.97
2018-04-14T19:02:19.448Z,62.91
2018-04-14T19:04:47.098Z,63.54
2018-04-14T19:07:14.714Z,63.28
2018-04-14T19:09:42.355Z,63.91
2018-04-14T19:12:10.004Z,64.01
2018-04-14T19:14:37.595Z,64.06
2018-04-14T19:17:05.265Z,64.33
2018-04-14T19:19:32.873Z,63.82
2018-04-14T19:22:00.481Z,64.50
2018-04-14T19:24:28.224Z,65.17
2018-04-14T19:26:55.824Z,64.86
2018-04-14T19:29:23.408Z,65.32
2018-04-14T19:31:51.193Z,65.52
2018-04-14T19:34:19.581Z,65.69
2018-04-14T19:36:47.241Z,65.51
2018-04-14T19:39:15.030Z,66.36
2018-04-14T19:41:42.620Z,67.22
2018-04-14T19:44:10.219Z,69.20
2018-04-14T19:46:37.856Z,70.01
2018-04-14T19:49:05.750Z,69.84
2018-04-14T19:51:33.403Z,70.32
2018-04-14T19:54:01.120Z,71.09
2018-04-14T19:56:28.704Z,70.73
2018-04-14T19:58:56.299Z,70.87
2018-04-14T20:01:23.996Z,71.71
2018-04-14T20:03:51.737Z,72.38
2018-04-14T20:06:19.330Z,72.18
2018-04-14T20:08:47.057Z,72.03
2018-04-14T20:11:14.639Z,73.02
2018-04-14T20:13:42.296Z,74.00
2018-04-14T20:16:09.933Z,74.24
2018-04-14T20:18:37.531Z,75.04
2018-04-14T20:21:05.144Z,74.80
2018-04-14T20:23:32.921Z,75.12
2018-04-14T20:26:00.513Z,75.54
2018-04-14T20:28:28.217Z,75.87
2018-04-14T20:30:55.986Z,76.19
2018-04-14T20:33:24.360Z,76.69
2018-04-14T20:35:52.014Z,76.53
2018-04-14T20:38:19.727Z,76.05
2018-04-14T20:40:47.344Z,76.02
2018-04-14T20:43:14.998Z,75.52
2018-04-14T20:45:53.754Z,75.96
2018-04-14T20:48:21.413Z,75.79
2018-04-14T20:50:49.004Z,75.86
2018-04-14T20:53:16.648Z,76.06
2018-04-14T20:55:44.265Z,75.86
2018-04-14T20:58:11.911Z,75.99
2018-04-14T21:00:39.826Z,75.53
2018-04-14T21:03:07.421Z,75.38
2018-04-14T21:05:36.387Z,76.16
2018-04-14T21:08:04.058Z,75.82
2018-04-14T21:10:31.664Z,76.25
2018-04-14T21:12:59.332Z,76.32
2018-04-14T21:15:27.081Z,76.15
2018-04-14T21:17:57.759Z,75.94
2018-04-14T21:20:25.339Z,75.89
2018-04-14T21:22:53.872Z,75.97
2018-04-14T21:25:21.461Z,75.83
2018-04-14T21:27:49.312Z,75.43
2018-04-14T21:30:16.980Z,75.27
2018-04-14T21:32:44.568Z,75.39
2018-04-14T21:35:12.217Z,75.33
2018-04-14T21:37:39.947Z,74.86
2018-04-14T21:40:07.554Z,75.13
2018-04-14T21:42:37.299Z,75.44
2018-04-14T21:45:05.029Z,76.08
2018-04-14T21:47:32.659Z,76.43
2018-04-14T21:50:00.243Z,76.79
2018-04-14T21:52:28.033Z,77.04
2018-04-14T21:54:55.627Z,77.29
2018-04-14T21:57:23.234Z,77.25
2018-04-14T21:59:50.887Z,77.32
2018-04-14T22:02:18.548Z,77.77
2018-04-14T22:04:46.134Z,77.81
2018-04-14T22:07:13.931Z,77.83
2018-04-14T22:09:41.619Z,78.36
2018-04-14T22:12:09.308Z,80.26
2018-04-14T22:14:37.068Z,81.13
2018-04-14T22:17:04.682Z,81.21
2018-04-14T22:19:32.344Z,81.24
2018-04-14T22:22:00.173Z,81.42
2018-04-14T22:24:27.780Z,81.30
2018-04-14T22:26:55.423Z,80.96
2018-04-14T22:29:23.072Z,80.72
2018-04-14T22:31:50.671Z,81.16
2018-04-14T22:34:18.256Z,80.81
2018-04-14T22:36:45.964Z,81.19
2018-04-14T22:39:13.560Z,81.21
2018-04-14T22:41:41.217Z,81.26
2018-04-14T22:44:08.938Z,81.18
2018-04-14T22:46:36.600Z,81.10
2018-04-14T22:49:04.187Z,80.87
2018-04-14T22:51:31.833Z,80.68
2018-04-14T22:53:59.513Z,80.51
2018-04-14T22:56:27.096Z,79.97
2018-04-14T22:58:54.897Z,78.99
2018-04-14T23:01:22.479Z,79.15
2018-04-14T23:03:50.067Z,79.63
2018-04-14T23:06:17.801Z,79.62
2018-04-14T23:08:46.492Z,80.00
2018-04-14T23:11:14.093Z,79.94
2018-04-14T23:13:41.881Z,80.05
2018-04-14T23:16:09.597Z,80.00
2018-04-14T23:18:37.289Z,79.62
2018-04-14T23:21:05.025Z,79.54
2018-04-14T23:23:32.640Z,79.62
2018-04-14T23:26:00.297Z,78.78
2018-04-14T23:28:27.961Z,78.84
2018-04-14T23:30:56.452Z,79.11
2018-04-14T23:33:24.113Z,79.47
2018-04-14T23:35:51.836Z,79.95
2018-04-14T23:38:19.497Z,79.60
2018-04-14T23:40:47.085Z,79.98
2018-04-14T23:43:14.870Z,79.52
2018-04-14T23:45:42.454Z,79.00
2018-04-14T23:48:10.045Z,79.13
2018-04-14T23:50:37.680Z,79.12
2018-04-14T23:53:05.349Z,79.20
2018-04-14T23:55:32.935Z,78.73
2018-04-14T23:58:00.685Z,77.96
